Time;durP1;ratioP1;P1;durP2;ratioP2;P2;SDS_P1;SDS_P2;PMS_P1;PMS_P2;Temp;Humidity;BMP_temperature;BMP_pressure;BME280_temperature;BME280_humidity;BME280_pressure;Samples;Min_cycle;Max_cycle;Signal;HPM_P1;HPM_P2
2023/03/10 00:02:18;;;;;;;36.05;19.70;;;2.10;99.90;;;;;;5122758;27;20185;-74
2023/03/10 00:04:48;;;;;;;37.33;20.08;;;2.10;99.90;;;;;;5101936;27;20173;-75
2023/03/10 00:07:13;;;;;;;39.90;20.52;;;2.10;99.90;;;;;;5115862;27;20231;-74
2023/03/10 00:09:39;;;;;;;36.17;18.15;;;2.10;99.90;;;;;;5095708;28;20624;-74
2023/03/10 00:12:05;;;;;;;30.00;16.20;;;2.10;99.90;;;;;;5106674;27;20276;-73
2023/03/10 00:14:31;;;;;;;33.33;18.58;;;2.10;99.90;;;;;;5104564;27;20182;-73
2023/03/10 00:16:57;;;;;;;32.95;18.27;;;2.10;99.90;;;;;;5117388;27;20557;-73
2023/03/10 00:19:23;;;;;;;28.80;14.60;;;2.10;99.90;;;;;;5113863;28;20192;-74
2023/03/10 00:21:48;;;;;;;31.27;18.10;;;2.10;99.90;;;;;;5120647;27;20180;-79
2023/03/10 00:24:14;;;;;;;32.28;18.48;;;2.10;99.90;;;;;;5103025;28;20189;-79
2023/03/10 00:26:40;;;;;;;29.88;17.05;;;2.20;99.90;;;;;;5093969;28;20732;-73
2023/03/10 00:29:05;;;;;;;28.35;15.70;;;2.10;99.90;;;;;;5127547;27;20188;-75
2023/03/10 00:31:33;;;;;;;26.30;13.02;;;2.10;99.90;;;;;;5071669;28;20208;-73
2023/03/10 00:33:59;;;;;;;31.63;17.42;;;2.00;99.90;;;;;;5094542;28;20694;-74
2023/03/10 00:36:27;;;;;;;30.17;15.98;;;2.10;99.90;;;;;;5081917;28;20195;-73
2023/03/10 00:38:55;;;;;;;33.33;17.27;;;2.00;99.90;;;;;;5100367;27;20203;-75
2023/03/10 00:41:23;;;;;;;35.03;18.70;;;2.00;99.90;;;;;;5130632;27;20206;-74
2023/03/10 00:43:50;;;;;;;35.67;17.70;;;2.10;99.90;;;;;;5115806;27;20259;-74
2023/03/10 00:46:15;;;;;;;27.58;15.80;;;2.00;99.90;;;;;;5111396;27;20182;-75
2023/03/10 00:48:42;;;;;;;40.10;21.42;;;2.00;99.90;;;;;;5106802;28;20758;-73
2023/03/10 00:51:08;;;;;;;36.38;19.70;;;2.00;99.90;;;;;;5102703;27;20231;-76
2023/03/10 00:53:36;;;;;;;41.15;22.48;;;2.00;99.90;;;;;;5111317;28;20188;-74
2023/03/10 00:56:03;;;;;;;31.65;17.40;;;2.10;99.90;;;;;;5111945;28;20177;-74
2023/03/10 00:58:31;;;;;;;33.33;17.63;;;2.10;99.90;;;;;;5114190;28;20184;-75
2023/03/10 01:00:57;;;;;;;25.92;14.95;;;2.00;99.90;;;;;;5097239;27;20181;-75
2023/03/10 01:03:25;;;;;;;24.80;15.27;;;2.10;99.90;;;;;;5107095;28;20218;-75
2023/03/10 01:05:51;;;;;;;22.77;12.90;;;2.10;99.90;;;;;;5076199;28;20193;-74
2023/03/10 01:08:18;;;;;;;21.25;10.95;;;2.10;99.90;;;;;;5095641;28;20193;-74
2023/03/10 01:10:44;;;;;;;20.48;11.80;;;2.10;99.90;;;;;;5094990;28;20181;-74
2023/03/10 01:13:11;;;;;;;19.05;10.43;;;2.10;99.90;;;;;;5095382;28;20264;-78
2023/03/10 01:15:38;;;;;;;20.73;12.43;;;2.10;99.90;;;;;;5089746;28;20189;-75
2023/03/10 01:18:04;;;;;;;19.13;11.35;;;2.10;99.90;;;;;;5082207;28;20184;-75
2023/03/10 01:20:31;;;;;;;20.42;11.45;;;2.10;99.90;;;;;;5115796;28;20188;-74
2023/03/10 01:22:57;;;;;;;17.85;10.60;;;2.10;99.90;;;;;;5100319;28;20184;-73
2023/03/10 01:25:23;;;;;;;19.58;10.50;;;2.20;99.90;;;;;;5115471;28;20189;-74
2023/03/10 01:27:49;;;;;;;18.58;10.63;;;2.20;99.90;;;;;;5087304;27;20210;-74
2023/03/10 01:30:15;;;;;;;18.70;11.02;;;2.20;99.90;;;;;;5085360;27;20188;-75
2023/03/10 01:32:41;;;;;;;17.33;9.57;;;2.20;99.90;;;;;;5115996;27;20572;-79
2023/03/10 01:35:08;;;;;;;19.13;10.95;;;2.20;99.90;;;;;;5085874;28;20181;-74
2023/03/10 01:37:34;;;;;;;15.80;9.90;;;2.20;99.90;;;;;;5124667;27;20199;-74
2023/03/10 01:40:00;;;;;;;21.27;11.23;;;2.20;99.90;;;;;;5098639;28;20188;-73
2023/03/10 01:42:26;;;;;;;19.40;11.65;;;2.20;99.90;;;;;;5123161;27;20203;-73
2023/03/10 01:45:07;;;;;;;18.77;11.27;;;2.20;99.90;;;;;;5116771;28;20578;-73
2023/03/10 01:47:33;;;;;;;16.73;9.80;;;2.30;99.90;;;;;;5114607;28;20212;-73
2023/03/10 01:50:00;;;;;;;19.63;11.50;;;2.30;99.90;;;;;;5098064;28;20579;-72
2023/03/10 01:52:29;;;;;;;22.13;11.68;;;2.30;99.90;;;;;;5095430;28;20184;-77
2023/03/10 01:55:05;;;;;;;21.88;11.05;;;2.30;99.90;;;;;;5122088;27;20185;-73
2023/03/10 01:57:39;;;;;;;21.10;12.25;;;2.30;99.90;;;;;;5095865;28;20633;-72
2023/03/10 02:00:11;;;;;;;22.70;12.82;;;2.30;99.90;;;;;;5098191;28;20197;-73
2023/03/10 02:02:49;;;;;;;21.95;13.13;;;2.40;99.90;;;;;;5120125;27;20196;-73
2023/03/10 02:05:15;;;;;;;23.10;13.70;;;2.40;99.90;;;;;;5061694;27;20608;-73
2023/03/10 02:07:42;;;;;;;23.38;14.13;;;2.40;99.90;;;;;;5082327;28;20292;-75
2023/03/10 02:10:11;;;;;;;27.27;15.10;;;2.40;99.90;;;;;;5123755;27;20185;-73
2023/03/10 02:12:37;;;;;;;23.90;14.95;;;2.50;99.90;;;;;;5132893;27;20184;-73
2023/03/10 02:15:03;;;;;;;21.65;13.18;;;2.50;99.90;;;;;;5094088;27;20203;-73
2023/03/10 02:17:29;;;;;;;22.02;13.55;;;2.50;99.90;;;;;;5099690;28;20238;-74
2023/03/10 02:20:19;;;;;;;24.25;14.00;;;2.50;99.90;;;;;;5115920;28;20177;-73
2023/03/10 02:22:46;;;;;;;22.73;14.13;;;2.50;99.90;;;;;;5089051;27;20249;-74
2023/03/10 02:25:39;;;;;;;23.38;13.95;;;2.50;99.90;;;;;;5120045;27;20677;-77
2023/03/10 02:28:05;;;;;;;21.30;11.10;;;2.50;99.90;;;;;;5105616;27;20208;-73
2023/03/10 02:30:34;;;;;;;23.67;13.80;;;2.50;99.90;;;;;;5115603;27;20199;-74
2023/03/10 02:33:05;;;;;;;24.83;14.30;;;2.50;99.90;;;;;;5093830;28;20185;-74
2023/03/10 02:35:31;;;;;;;23.70;14.13;;;2.50;99.90;;;;;;5098726;28;20698;-73
2023/03/10 02:38:02;;;;;;;24.38;12.90;;;2.50;99.90;;;;;;5086386;27;20184;-74
2023/03/10 02:40:36;;;;;;;23.95;14.38;;;2.50;99.90;;;;;;5099667;27;20555;-74
2023/03/10 02:43:31;;;;;;;24.05;14.05;;;2.40;99.90;;;;;;5076265;28;20203;-73
2023/03/10 02:46:06;;;;;;;23.60;13.32;;;2.40;99.90;;;;;;5087039;27;20605;-72
2023/03/10 02:48:37;;;;;;;24.63;14.32;;;2.40;99.90;;;;;;5104102;28;20209;-72
2023/03/10 02:51:14;;;;;;;23.13;14.05;;;2.40;99.90;;;;;;5095377;28;20217;-73
2023/03/10 02:53:40;;;;;;;23.70;12.57;;;2.40;99.90;;;;;;5086365;27;20446;-76
2023/03/10 02:56:06;;;;;;;22.60;13.93;;;2.40;99.90;;;;;;5089963;27;20578;-75
2023/03/10 02:58:35;;;;;;;25.67;14.18;;;2.40;99.90;;;;;;5068264;28;20178;-75
2023/03/10 03:01:05;;;;;;;24.55;12.80;;;2.40;99.90;;;;;;5095919;28;20177;-74
2023/03/10 03:03:35;;;;;;;28.70;16.23;;;2.40;99.90;;;;;;5091702;28;20646;-74
2023/03/10 03:06:02;;;;;;;24.55;14.93;;;2.40;99.90;;;;;;5093061;28;20195;-73
2023/03/10 03:08:28;;;;;;;28.60;14.77;;;2.40;99.90;;;;;;5096097;28;20661;-73
2023/03/10 03:10:54;;;;;;;27.40;16.15;;;2.40;99.90;;;;;;5096777;27;20182;-75
2023/03/10 03:13:20;;;;;;;28.42;16.08;;;2.40;99.90;;;;;;5114437;27;20188;-76
2023/03/10 03:15:47;;;;;;;29.83;17.05;;;2.40;99.90;;;;;;5087250;28;20193;-73
2023/03/10 03:18:14;;;;;;;30.80;16.27;;;2.40;99.90;;;;;;5096016;28;20188;-74
2023/03/10 03:20:40;;;;;;;32.40;17.83;;;2.30;99.90;;;;;;5095013;28;20599;-73
2023/03/10 03:23:07;;;;;;;33.83;18.90;;;2.40;99.90;;;;;;5079162;28;20556;-75
2023/03/10 03:25:36;;;;;;;32.33;19.25;;;2.40;99.90;;;;;;5109379;27;20189;-73
2023/03/10 03:28:04;;;;;;;34.65;19.33;;;2.40;99.90;;;;;;5068935;28;20208;-72
2023/03/10 03:30:30;;;;;;;32.28;19.60;;;2.30;99.90;;;;;;5104308;27;20221;-72
2023/03/10 03:32:57;;;;;;;33.53;19.05;;;2.30;99.90;;;;;;5099584;27;20188;-73
2023/03/10 03:35:30;;;;;;;30.27;18.17;;;2.30;99.90;;;;;;5099220;27;20185;-74
2023/03/10 03:37:57;;;;;;;33.55;18.45;;;2.30;99.90;;;;;;5090683;28;20184;-72
2023/03/10 03:40:25;;;;;;;35.22;20.05;;;2.30;99.90;;;;;;5057433;27;20662;-79
2023/03/10 03:42:53;;;;;;;37.17;19.60;;;2.30;99.90;;;;;;5132808;27;20181;-73
2023/03/10 03:45:23;;;;;;;33.15;19.08;;;2.30;99.90;;;;;;5108852;28;20185;-73
2023/03/10 03:47:51;;;;;;;31.25;17.48;;;2.30;99.90;;;;;;5084357;27;20657;-72
2023/03/10 03:50:18;;;;;;;33.25;19.13;;;2.30;99.90;;;;;;5101378;27;20353;-73
2023/03/10 03:52:45;;;;;;;30.15;15.88;;;2.30;99.90;;;;;;5130161;27;20191;-72
2023/03/10 03:55:14;;;;;;;27.83;16.00;;;2.30;99.90;;;;;;5112605;27;20611;-75
2023/03/10 03:57:43;;;;;;;31.27;18.42;;;2.30;99.90;;;;;;5078021;28;20192;-75
2023/03/10 04:00:17;;;;;;;31.38;18.15;;;2.30;99.90;;;;;;5077751;28;20641;-73
2023/03/10 04:02:46;;;;;;;31.02;17.45;;;2.30;99.90;;;;;;5094438;28;20298;-72
2023/03/10 04:05:12;;;;;;;28.27;16.30;;;2.30;99.90;;;;;;5095671;28;20523;-73
2023/03/10 04:07:40;;;;;;;33.60;17.90;;;2.30;99.90;;;;;;5085533;27;20300;-72
2023/03/10 04:10:09;;;;;;;34.55;19.27;;;2.30;99.90;;;;;;5101079;28;20174;-73
2023/03/10 04:12:35;;;;;;;32.25;19.48;;;2.30;99.90;;;;;;5112093;28;20185;-72
2023/03/10 04:15:01;;;;;;;34.83;19.50;;;2.30;99.90;;;;;;5095501;28;20547;-73
2023/03/10 04:17:27;;;;;;;33.97;19.02;;;2.30;99.90;;;;;;5088495;28;20200;-75
2023/03/10 04:19:53;;;;;;;36.97;20.75;;;2.30;99.90;;;;;;5084663;28;20181;-78
2023/03/10 04:22:20;;;;;;;32.45;18.25;;;2.30;99.90;;;;;;5084375;28;20180;-78
2023/03/10 04:24:47;;;;;;;33.90;18.80;;;2.30;99.90;;;;;;5092562;27;20639;-73
2023/03/10 04:27:13;;;;;;;36.15;20.30;;;2.40;99.90;;;;;;5115309;27;20313;-72
2023/03/10 04:29:39;;;;;;;36.20;20.05;;;2.40;99.90;;;;;;5094701;28;20177;-73
2023/03/10 04:32:05;;;;;;;36.97;20.90;;;2.30;99.90;;;;;;5087301;28;20628;-75
2023/03/10 04:34:33;;;;;;;37.00;19.48;;;2.40;99.90;;;;;;5083340;27;20189;-73
2023/03/10 04:37:00;;;;;;;40.70;21.33;;;2.40;99.90;;;;;;5080698;28;20201;-73
2023/03/10 04:39:26;;;;;;;32.13;17.50;;;2.40;99.90;;;;;;5074758;28;20173;-73
2023/03/10 04:41:52;;;;;;;37.80;20.25;;;2.40;99.90;;;;;;5096699;28;20177;-79
2023/03/10 04:44:18;;;;;;;37.83;19.65;;;2.40;99.90;;;;;;5068861;27;20184;-73
2023/03/10 04:46:44;;;;;;;34.83;19.50;;;2.40;99.90;;;;;;5102630;28;20543;-72
2023/03/10 04:49:10;;;;;;;39.55;21.50;;;2.40;99.90;;;;;;5127106;27;20236;-72
2023/03/10 04:51:36;;;;;;;43.42;22.73;;;2.30;99.90;;;;;;5122298;27;20185;-72
2023/03/10 04:54:01;;;;;;;50.45;25.67;;;2.30;99.90;;;;;;5112253;28;20228;-72
2023/03/10 04:56:30;;;;;;;49.38;23.58;;;2.30;99.90;;;;;;5100780;27;20597;-74
2023/03/10 04:58:56;;;;;;;44.38;20.63;;;2.30;99.90;;;;;;5114825;27;20184;-74
2023/03/10 05:01:23;;;;;;;53.03;27.05;;;2.20;99.90;;;;;;5101139;28;20181;-72
2023/03/10 05:03:56;;;;;;;53.72;23.58;;;2.30;99.90;;;;;;5113104;28;20177;-74
2023/03/10 05:06:23;;;;;;;62.08;31.33;;;2.20;99.90;;;;;;5100088;28;20191;-72
2023/03/10 05:09:03;;;;;;;61.38;30.25;;;2.20;99.90;;;;;;5101162;28;20306;-72
2023/03/10 05:11:30;;;;;;;63.38;31.67;;;2.30;99.90;;;;;;5096682;28;20181;-74
2023/03/10 05:13:56;;;;;;;67.60;31.05;;;2.20;99.90;;;;;;5101153;28;20696;-72
2023/03/10 05:16:22;;;;;;;65.93;32.42;;;2.20;99.90;;;;;;5095071;28;20181;-74
2023/03/10 05:18:50;;;;;;;71.80;33.92;;;2.20;99.90;;;;;;5114778;28;20187;-73
2023/03/10 05:21:20;;;;;;;65.65;32.17;;;2.20;99.90;;;;;;5094904;28;20192;-73
2023/03/10 05:23:47;;;;;;;71.65;33.10;;;2.20;99.90;;;;;;5094243;28;20237;-72
2023/03/10 05:26:15;;;;;;;67.05;30.92;;;2.20;99.90;;;;;;5093431;28;20181;-72
2023/03/10 05:28:41;;;;;;;67.45;32.42;;;2.20;99.90;;;;;;5077863;28;20209;-73
2023/03/10 05:31:09;;;;;;;61.17;28.65;;;2.20;99.90;;;;;;5089447;28;20196;-73
2023/03/10 05:33:36;;;;;;;66.53;30.10;;;2.20;99.90;;;;;;5097765;28;20263;-72
2023/03/10 05:36:04;;;;;;;67.88;32.67;;;2.20;99.90;;;;;;5112542;28;20248;-72
2023/03/10 05:38:32;;;;;;;67.20;32.85;;;2.20;99.90;;;;;;5094927;28;20189;-72
2023/03/10 05:40:58;;;;;;;57.42;28.70;;;2.20;99.90;;;;;;5075927;28;20319;-73
2023/03/10 05:43:24;;;;;;;59.17;29.60;;;2.20;99.90;;;;;;5090843;28;20272;-73
2023/03/10 05:45:57;;;;;;;52.47;25.55;;;2.20;99.90;;;;;;5073279;28;20281;-72
2023/03/10 05:48:25;;;;;;;55.70;27.15;;;2.20;99.90;;;;;;5094230;28;20229;-73
2023/03/10 05:51:03;;;;;;;51.30;27.85;;;2.20;99.90;;;;;;5093774;28;20254;-72
2023/03/10 05:53:31;;;;;;;47.67;21.92;;;2.10;99.90;;;;;;5097597;28;20506;-72
2023/03/10 05:55:57;;;;;;;52.80;26.27;;;2.10;99.90;;;;;;5072847;28;20273;-76
2023/03/10 05:58:24;;;;;;;47.17;26.42;;;2.10;99.90;;;;;;5056964;28;20233;-73
2023/03/10 06:00:51;;;;;;;48.17;24.00;;;2.10;99.90;;;;;;5123154;28;20181;-73
2023/03/10 06:03:18;;;;;;;46.78;24.48;;;2.10;99.90;;;;;;5097618;28;20180;-72
2023/03/10 06:05:44;;;;;;;44.58;21.65;;;2.10;99.90;;;;;;5114733;28;20189;-72
2023/03/10 06:08:10;;;;;;;44.35;22.58;;;2.10;99.90;;;;;;5102466;27;20616;-72
2023/03/10 06:10:36;;;;;;;47.53;22.05;;;2.10;99.90;;;;;;5104965;28;20299;-72
2023/03/10 06:13:02;;;;;;;39.75;20.77;;;2.10;99.90;;;;;;5099053;27;20649;-73
2023/03/10 06:15:28;;;;;;;46.00;21.95;;;2.00;99.90;;;;;;5083968;28;20218;-72
2023/03/10 06:17:54;;;;;;;40.13;21.90;;;2.00;99.90;;;;;;5098458;27;20217;-75
2023/03/10 06:20:19;;;;;;;42.25;21.67;;;2.00;99.90;;;;;;5135853;27;20212;-73
2023/03/10 06:22:45;;;;;;;35.83;18.02;;;2.00;99.90;;;;;;5131725;27;20694;-73
2023/03/10 06:25:12;;;;;;;37.53;20.58;;;1.90;99.90;;;;;;5118650;27;20177;-74
2023/03/10 06:27:38;;;;;;;36.55;20.27;;;1.90;99.90;;;;;;5092751;28;20217;-73
2023/03/10 06:30:04;;;;;;;34.55;18.45;;;1.90;99.90;;;;;;5113410;27;20191;-72
2023/03/10 06:32:30;;;;;;;34.42;18.65;;;1.90;99.90;;;;;;5123606;27;20185;-76
2023/03/10 06:34:58;;;;;;;34.50;18.23;;;1.90;99.90;;;;;;5103860;27;20185;-72
2023/03/10 06:37:24;;;;;;;31.48;17.65;;;1.90;99.90;;;;;;5113683;28;20712;-74
2023/03/10 06:39:49;;;;;;;31.98;17.40;;;1.90;99.90;;;;;;5104216;28;20213;-73
2023/03/10 06:42:15;;;;;;;34.58;18.33;;;1.90;99.90;;;;;;5077327;28;20201;-74
2023/03/10 06:44:41;;;;;;;34.65;18.20;;;1.90;99.90;;;;;;5101686;27;20181;-73
2023/03/10 06:47:07;;;;;;;34.13;18.20;;;1.80;99.90;;;;;;5110706;28;20350;-74
2023/03/10 06:49:32;;;;;;;35.75;18.92;;;1.90;99.90;;;;;;5095643;28;20224;-74
2023/03/10 06:51:59;;;;;;;35.22;18.00;;;1.90;99.90;;;;;;5112276;28;20233;-73
2023/03/10 06:54:25;;;;;;;33.35;17.15;;;2.00;99.90;;;;;;5115468;27;20204;-74
2023/03/10 06:56:51;;;;;;;36.67;17.90;;;1.90;99.90;;;;;;5108061;28;20181;-74
2023/03/10 06:59:17;;;;;;;32.58;17.13;;;1.90;99.90;;;;;;5095852;28;20181;-73
2023/03/10 07:01:43;;;;;;;33.47;16.42;;;1.90;99.90;;;;;;5087028;27;20193;-77
2023/03/10 07:04:10;;;;;;;27.63;12.93;;;1.90;99.90;;;;;;5123955;27;20186;-75
2023/03/10 07:06:36;;;;;;;30.77;16.35;;;1.90;99.90;;;;;;5080660;28;20186;-73
2023/03/10 07:09:03;;;;;;;38.28;20.17;;;1.80;99.90;;;;;;5076066;28;20218;-75
2023/03/10 07:11:28;;;;;;;35.90;18.85;;;1.90;99.90;;;;;;5109568;27;20181;-75
2023/03/10 07:13:54;;;;;;;39.72;19.10;;;1.90;99.90;;;;;;5110253;27;20188;-74
2023/03/10 07:16:21;;;;;;;38.20;20.55;;;1.90;99.90;;;;;;5083554;28;20192;-73
2023/03/10 07:18:47;;;;;;;40.40;21.25;;;1.90;99.90;;;;;;5114505;28;20177;-74
2023/03/10 07:21:18;;;;;;;44.00;22.38;;;1.90;99.90;;;;;;5093747;28;20185;-74
2023/03/10 07:23:44;;;;;;;44.97;22.33;;;1.90;99.90;;;;;;5098997;28;20247;-73
2023/03/10 07:26:13;;;;;;;43.33;21.15;;;2.00;99.90;;;;;;5097899;27;20181;-73
2023/03/10 07:28:39;;;;;;;45.08;22.60;;;1.90;99.90;;;;;;5130902;27;20475;-74
2023/03/10 07:31:07;;;;;;;45.45;21.95;;;2.00;99.90;;;;;;5088837;28;20192;-72
2023/03/10 07:33:33;;;;;;;44.53;22.27;;;1.90;99.90;;;;;;5114408;28;20205;-75
2023/03/10 07:36:10;;;;;;;43.90;22.25;;;2.00;99.90;;;;;;5093327;28;20188;-73
2023/03/10 07:38:36;;;;;;;41.58;20.73;;;2.00;99.90;;;;;;5105815;28;20213;-72
2023/03/10 07:41:07;;;;;;;38.45;19.67;;;1.90;99.90;;;;;;5068354;28;20182;-75
2023/03/10 07:43:32;;;;;;;43.60;22.15;;;2.00;99.90;;;;;;5103327;28;20169;-74
2023/03/10 07:45:58;;;;;;;41.97;21.35;;;1.90;99.90;;;;;;5103892;28;20185;-78
2023/03/10 07:48:24;;;;;;;32.75;16.83;;;2.00;99.90;;;;;;5111276;27;20254;-73
2023/03/10 07:50:57;;;;;;;41.03;21.50;;;1.90;99.90;;;;;;5109680;28;20376;-74
2023/03/10 07:53:23;;;;;;;37.67;19.25;;;1.90;99.90;;;;;;5114018;28;20647;-73
2023/03/10 07:55:49;;;;;;;40.58;20.42;;;2.00;99.90;;;;;;5093112;28;20195;-74
2023/03/10 07:58:15;;;;;;;40.38;20.05;;;2.00;99.90;;;;;;5109404;28;20569;-76
2023/03/10 08:00:40;;;;;;;40.88;20.55;;;2.00;99.90;;;;;;5110712;27;20184;-73
2023/03/10 08:03:06;;;;;;;37.03;19.52;;;2.00;99.90;;;;;;5134600;27;20241;-74
2023/03/10 08:05:32;;;;;;;38.10;19.17;;;2.00;99.90;;;;;;5094462;28;20208;-75
2023/03/10 08:07:58;;;;;;;47.80;23.05;;;2.00;99.90;;;;;;5087182;28;20228;-74
2023/03/10 08:10:24;;;;;;;41.03;21.13;;;2.00;99.90;;;;;;5110557;27;20671;-74
2023/03/10 08:12:50;;;;;;;45.33;22.77;;;2.00;99.90;;;;;;5102609;27;20260;-76
2023/03/10 08:15:16;;;;;;;40.72;20.70;;;2.00;99.90;;;;;;5094020;28;20185;-77
2023/03/10 08:17:41;;;;;;;45.40;22.17;;;2.00;99.90;;;;;;5096259;27;20195;-74
2023/03/10 08:20:09;;;;;;;40.63;20.05;;;2.00;99.90;;;;;;5134549;27;20180;-74
2023/03/10 08:22:34;;;;;;;36.15;18.58;;;2.00;99.90;;;;;;5128752;27;20534;-76
2023/03/10 08:25:00;;;;;;;43.05;21.45;;;2.00;99.90;;;;;;5132697;27;20184;-74
2023/03/10 08:27:26;;;;;;;42.00;22.35;;;2.00;99.90;;;;;;5092320;27;20478;-76
2023/03/10 08:29:52;;;;;;;47.13;22.60;;;1.90;99.90;;;;;;5097355;28;21170;-74
2023/03/10 08:32:18;;;;;;;44.35;21.50;;;2.00;99.90;;;;;;5122697;27;20180;-75
2023/03/10 08:34:44;;;;;;;42.67;21.20;;;1.90;99.90;;;;;;5112487;28;20649;-74
2023/03/10 08:37:11;;;;;;;38.20;19.20;;;1.90;99.90;;;;;;5107121;27;20194;-74
2023/03/10 08:39:37;;;;;;;42.75;22.23;;;2.00;99.90;;;;;;5106540;27;20181;-74
2023/03/10 08:42:03;;;;;;;40.78;20.70;;;1.90;99.90;;;;;;5087189;27;20184;-74
2023/03/10 08:44:28;;;;;;;42.60;22.23;;;2.00;99.90;;;;;;5112172;28;20644;-75
2023/03/10 08:46:54;;;;;;;42.28;22.00;;;2.00;99.90;;;;;;5078461;28;20277;-74
2023/03/10 08:49:21;;;;;;;39.08;21.67;;;2.00;99.90;;;;;;5093385;28;20181;-73
2023/03/10 08:51:47;;;;;;;42.95;21.52;;;2.00;99.90;;;;;;5117019;27;20304;-73
2023/03/10 08:54:16;;;;;;;41.42;22.00;;;2.00;99.90;;;;;;5131451;27;20176;-77
2023/03/10 08:56:42;;;;;;;40.75;22.10;;;2.00;99.90;;;;;;5089838;27;20175;-73
2023/03/10 08:59:08;;;;;;;41.08;21.70;;;2.00;99.90;;;;;;5111810;27;20532;-73
2023/03/10 09:01:35;;;;;;;41.10;20.02;;;2.00;99.90;;;;;;5103363;28;20185;-77
2023/03/10 09:04:03;;;;;;;40.65;20.70;;;2.10;99.90;;;;;;5083089;28;20224;-74
2023/03/10 09:06:29;;;;;;;43.97;22.73;;;2.10;99.90;;;;;;5099572;28;20188;-73
2023/03/10 09:08:55;;;;;;;38.00;19.67;;;2.10;99.90;;;;;;5130158;28;20272;-74
2023/03/10 09:11:30;;;;;;;41.00;19.92;;;2.20;99.90;;;;;;5104508;28;20632;-76
2023/03/10 09:13:56;;;;;;;39.08;21.45;;;2.10;99.90;;;;;;5100822;28;20543;-73
2023/03/10 09:16:22;;;;;;;35.17;17.52;;;2.10;99.90;;;;;;5117339;28;20211;-75
2023/03/10 09:18:48;;;;;;;37.42;20.83;;;2.10;99.90;;;;;;5098944;28;20181;-73
2023/03/10 09:21:17;;;;;;;37.45;20.70;;;2.10;99.90;;;;;;5072983;28;20198;-75
2023/03/10 09:23:45;;;;;;;39.75;20.15;;;2.10;99.90;;;;;;5093513;28;20193;-80
2023/03/10 09:26:11;;;;;;;39.67;22.33;;;2.10;99.90;;;;;;5091424;28;20556;-73
2023/03/10 09:28:37;;;;;;;37.60;20.48;;;2.10;99.90;;;;;;5103308;28;20649;-74
2023/03/10 09:31:07;;;;;;;41.85;21.48;;;2.20;99.90;;;;;;5126421;28;20227;-74
2023/03/10 09:33:33;;;;;;;41.42;21.00;;;2.20;99.90;;;;;;5112671;28;20173;-76
2023/03/10 09:36:01;;;;;;;35.55;18.83;;;2.20;99.90;;;;;;5095678;27;20749;-79
2023/03/10 09:38:28;;;;;;;37.72;18.10;;;2.20;99.90;;;;;;5108591;27;20578;-73
2023/03/10 09:41:14;;;;;;;35.53;18.70;;;2.20;99.90;;;;;;5114772;27;20186;-74
2023/03/10 09:43:49;;;;;;;39.00;19.55;;;2.20;99.90;;;;;;5075891;27;20212;-73
2023/03/10 09:46:24;;;;;;;37.70;19.92;;;2.10;99.90;;;;;;5104345;27;20185;-75
2023/03/10 09:49:02;;;;;;;38.22;21.35;;;2.10;99.90;;;;;;5116366;28;20196;-75
2023/03/10 09:51:28;;;;;;;39.63;21.13;;;2.10;99.90;;;;;;5091635;28;20732;-73
2023/03/10 09:54:20;;;;;;;41.22;19.15;;;2.10;99.90;;;;;;5084457;27;20501;-73
2023/03/10 09:56:46;;;;;;;36.03;18.83;;;2.20;99.90;;;;;;5084594;28;20217;-73
2023/03/10 09:59:27;;;;;;;29.75;14.55;;;2.20;99.90;;;;;;5098722;28;20215;-74
2023/03/10 10:01:53;;;;;;;35.13;19.50;;;2.20;99.90;;;;;;5101601;27;20181;-74
2023/03/10 10:04:34;;;;;;;38.30;19.45;;;2.20;99.90;;;;;;5108055;28;20182;-75
2023/03/10 10:07:01;;;;;;;37.25;19.55;;;2.20;99.90;;;;;;5105611;28;20181;-75
2023/03/10 10:09:41;;;;;;;31.90;17.73;;;2.20;99.90;;;;;;5110863;27;20215;-74
2023/03/10 10:12:12;;;;;;;36.90;19.20;;;2.20;99.90;;;;;;5106042;28;20177;-73
2023/03/10 10:14:38;;;;;;;36.65;19.17;;;2.30;99.90;;;;;;5112113;28;20242;-74
2023/03/10 10:17:32;;;;;;;35.05;18.58;;;2.30;99.90;;;;;;5090614;28;20182;-76
2023/03/10 10:19:58;;;;;;;35.03;19.35;;;2.30;99.90;;;;;;5073726;28;20474;-74
2023/03/10 10:22:29;;;;;;;34.40;18.95;;;2.30;99.90;;;;;;5103550;27;20473;-74
2023/03/10 10:25:11;;;;;;;35.13;18.85;;;2.30;99.90;;;;;;5098931;28;20705;-72
2023/03/10 10:27:39;;;;;;;38.00;19.92;;;2.30;99.90;;;;;;5111480;27;20706;-73
2023/03/10 10:30:29;;;;;;;37.03;18.50;;;2.30;99.90;;;;;;5112651;27;20317;-74
2023/03/10 10:32:55;;;;;;;38.80;19.80;;;2.30;99.90;;;;;;5113278;27;20682;-74
2023/03/10 10:35:24;;;;;;;32.05;14.40;;;2.30;99.90;;;;;;5098724;27;20202;-78
2023/03/10 10:38:05;;;;;;;34.30;18.42;;;2.30;99.90;;;;;;5128410;27;20225;-76
2023/03/10 10:40:35;;;;;;;34.53;18.45;;;2.20;99.90;;;;;;5100541;27;20180;-75
2023/03/10 10:43:06;;;;;;;37.30;18.70;;;2.30;99.90;;;;;;5106643;27;20192;-74
2023/03/10 10:45:34;;;;;;;40.45;21.00;;;2.20;99.90;;;;;;5114119;28;20597;-76
2023/03/10 10:48:01;;;;;;;40.90;19.58;;;2.20;99.90;;;;;;5113077;28;20290;-74
2023/03/10 10:50:32;;;;;;;40.80;19.63;;;2.20;99.90;;;;;;5079472;28;20632;-80
2023/03/10 10:53:19;;;;;;;38.35;19.33;;;2.20;99.90;;;;;;5134807;27;20216;-74
2023/03/10 10:55:57;;;;;;;37.05;19.25;;;2.20;99.90;;;;;;5114323;27;20547;-75
2023/03/10 10:58:23;;;;;;;39.90;19.92;;;2.20;99.90;;;;;;5097066;28;20175;-73
2023/03/10 11:00:57;;;;;;;37.78;20.65;;;2.20;99.90;;;;;;5083332;28;20185;-75
2023/03/10 11:03:38;;;;;;;33.00;17.88;;;2.30;99.90;;;;;;5102151;28;20658;-74
2023/03/10 11:06:19;;;;;;;38.13;19.48;;;2.30;99.90;;;;;;5103149;28;20189;-75
2023/03/10 11:08:49;;;;;;;35.60;18.33;;;2.30;99.90;;;;;;5114072;27;20208;-74
2023/03/10 11:11:29;;;;;;;35.10;17.08;;;2.30;99.90;;;;;;5076865;27;20208;-75
2023/03/10 11:14:10;;;;;;;34.55;17.92;;;2.30;99.90;;;;;;5127292;27;20181;-75
2023/03/10 11:16:49;;;;;;;34.92;18.25;;;2.30;99.90;;;;;;5102922;27;20177;-73
2023/03/10 11:19:31;;;;;;;36.90;19.08;;;2.30;99.90;;;;;;5127244;27;20184;-74
2023/03/10 11:22:06;;;;;;;34.33;18.88;;;2.30;99.90;;;;;;5119437;27;20189;-74
2023/03/10 11:24:44;;;;;;;43.63;21.63;;;2.30;99.90;;;;;;5111773;28;20697;-75
2023/03/10 11:27:20;;;;;;;35.00;19.13;;;2.30;99.90;;;;;;5076955;27;20282;-74
2023/03/10 11:30:09;;;;;;;41.72;20.95;;;2.30;99.90;;;;;;5094147;28;20702;-74
2023/03/10 11:32:45;;;;;;;36.63;18.98;;;2.30;99.90;;;;;;5080141;27;20192;-73
2023/03/10 11:35:46;;;;;;;40.63;20.40;;;2.40;99.90;;;;;;5095559;28;20686;-74
2023/03/10 11:38:29;;;;;;;36.13;18.42;;;2.30;99.90;;;;;;5121923;27;20196;-74
2023/03/10 11:41:01;;;;;;;38.78;19.40;;;2.40;99.90;;;;;;5099496;28;20185;-73
2023/03/10 11:43:58;;;;;;;36.97;19.60;;;2.40;99.90;;;;;;5085660;28;20283;-74
2023/03/10 11:46:43;;;;;;;37.65;19.63;;;2.40;99.90;;;;;;5104494;28;20173;-73
2023/03/10 11:49:14;;;;;;;40.70;20.77;;;2.40;99.90;;;;;;5114129;28;20185;-73
2023/03/10 11:51:58;;;;;;;39.40;20.73;;;2.30;99.90;;;;;;5111962;28;20224;-73
2023/03/10 11:54:24;;;;;;;39.45;20.90;;;2.40;99.90;;;;;;5092809;28;20651;-73
2023/03/10 11:56:51;;;;;;;35.97;19.48;;;2.40;99.90;;;;;;5098715;27;20185;-74
2023/03/10 11:59:29;;;;;;;37.80;20.13;;;2.40;99.90;;;;;;5126091;27;20195;-75
2023/03/10 12:01:59;;;;;;;34.90;17.52;;;2.40;99.90;;;;;;5114295;27;20612;-73
2023/03/10 12:04:31;;;;;;;38.03;19.60;;;2.40;99.90;;;;;;5122024;27;20181;-73
2023/03/10 12:07:09;;;;;;;40.67;20.42;;;2.40;99.90;;;;;;5112507;27;20215;-73
2023/03/10 12:09:45;;;;;;;36.67;19.15;;;2.40;99.90;;;;;;5112906;28;20635;-73
2023/03/10 12:12:18;;;;;;;32.70;18.38;;;2.40;99.90;;;;;;5123140;27;20279;-73
2023/03/10 12:14:45;;;;;;;33.88;18.02;;;2.40;99.90;;;;;;5098770;27;20214;-73
2023/03/10 12:17:14;;;;;;;40.35;20.55;;;2.40;99.90;;;;;;5075920;27;20184;-74
2023/03/10 12:20:14;;;;;;;35.58;19.77;;;2.40;99.90;;;;;;5114083;27;20195;-74
2023/03/10 12:22:45;;;;;;;37.35;19.85;;;2.40;99.90;;;;;;5131876;27;20185;-73
2023/03/10 12:25:31;;;;;;;38.15;20.52;;;2.40;99.90;;;;;;5101098;27;20663;-72
2023/03/10 12:28:15;;;;;;;33.95;19.55;;;2.40;99.90;;;;;;5074996;28;20699;-73
2023/03/10 12:30:57;;;;;;;29.63;16.17;;;2.50;99.90;;;;;;5094564;28;20208;-74
2023/03/10 12:33:38;;;;;;;37.08;19.45;;;2.50;99.90;;;;;;5110521;28;20189;-72
2023/03/10 12:36:22;;;;;;;35.17;17.48;;;2.40;99.90;;;;;;5081923;28;20193;-75
2023/03/10 12:39:13;;;;;;;40.63;20.63;;;2.40;99.90;;;;;;5074668;28;20504;-75
2023/03/10 12:41:55;;;;;;;36.42;20.30;;;2.40;99.90;;;;;;5101821;28;20205;-73
2023/03/10 12:44:21;;;;;;;38.38;19.50;;;2.40;99.90;;;;;;5096575;28;20177;-73
2023/03/10 12:47:05;;;;;;;36.40;20.52;;;2.40;99.90;;;;;;5083715;28;21056;-76
2023/03/10 12:49:34;;;;;;;36.70;20.02;;;2.40;99.90;;;;;;5117958;27;20189;-74
2023/03/10 12:52:30;;;;;;;38.90;20.85;;;2.40;99.90;;;;;;5111266;28;20228;-72